KBPI/BPI METAR and TAF weather

Enter ICAO airport designator
Station Type Date Time Source
KBPI METAR 2021/07/28 02:53 UTC NOAA

KBPI 280253Z AUTO 27008KT 10SM CLR 23/08 A3030 RMK AO2 SLP155 T02280083 53015


Station Type Date Time Source
KBPI Decoded METAR 2021/07/28 02:53 UTC NOAA

BIG PINEY-MARBLETON AIRPORT, WY, United States (KBPI) 42-35N 110-06W 2117M
Jul 27, 2021 - 10:53 PM EDT / 2021.07.28 0253 UTC
Wind: from the W (270 degrees) at 9 MPH (8 KT):0
Visibility: 10 mile(s):0
Sky conditions: clear
Temperature: 73.0 F (22.8 C)
Dew Point: 46.9 F (8.3 C)
Relative Humidity: 39%
Pressure (altimeter): 30.3 in. Hg (1026 hPa)
Pressure tendency: 0.04 inches (1.5 hPa) higher than three hours ago
ob: KBPI 280253Z AUTO 27008KT 10SM CLR 23/08 A3030 RMK AO2 SLP155 T02280083 53015
cycle: 3

Station Type Date Time Source
KBPI TAF 2021/07/27 18:22 UTC NOAA

TAF KBPI 271720Z 2718/2818 35007KT 6SM FU FEW120
FM272100 28006KT P6SM VCTS SCT080CB BKN120
FM280300 VRB06KT P6SM SCT100 BKN150

Example: see airport list